East Chicago, Indiana
Current Conditions -  °F | °C
As of 3:15 AM on Saturday 29 Nov 2014 (Local Time) from KGYY Reporting Station
Clear Clear  
Wind Chill: 26°   Ceiling: Unl
Heat Index: 34°   Visibility: 10mi
Dew Point: 27°   Wind: 9mph
Humidity: 75%   Direction: 160°SSE
Pressure: 29.83"   Gusts: 18mph
Location:  41.63°N, 87.48°W
Report Text: KGYY 290915Z AUTO 16008G16KT 10SM CLR 01/M03 A2983 RMK AO2 T00101030
Loading
Personal Weather Stations






























Interactive Weather Map New forecast layout! Learn more

10-Day Weather Forecast

Advertisements
Track Severe Weather on mobile